createdAt,value
2022-09-24T00:06:40.983Z,6.88
2022-09-24T00:11:46.530Z,5.13
2022-09-24T00:16:50.047Z,5.65
2022-09-24T00:21:53.565Z,5.05
2022-09-24T00:26:58.443Z,6.47
2022-09-24T00:32:03.124Z,5.05
2022-09-24T00:37:06.526Z,6.32
2022-09-24T00:42:12.340Z,5.93
2022-09-24T00:47:28.677Z,4.40
2022-09-24T00:52:32.363Z,5.47
2022-09-24T00:57:39.328Z,6.20
2022-09-24T01:02:48.511Z,4.37
2022-09-24T01:07:53.582Z,5.10
2022-09-24T01:13:11.023Z,6.20
2022-09-24T01:18:26.316Z,5.13
2022-09-24T01:24:04.377Z,4.97
2022-09-24T01:29:42.000Z,5.72
2022-09-24T01:34:51.704Z,4.90
2022-09-24T01:39:57.856Z,6.88
2022-09-24T01:45:04.781Z,5.55
2022-09-24T01:50:12.809Z,4.13
2022-09-24T01:55:20.874Z,5.40
2022-09-24T02:00:26.054Z,7.13
2022-09-24T02:05:35.790Z,4.32
2022-09-24T02:10:47.416Z,5.10
2022-09-24T02:15:57.750Z,4.25
2022-09-24T02:21:09.703Z,5.32
2022-09-24T02:26:13.372Z,5.60
2022-09-24T02:31:27.225Z,5.20
2022-09-24T02:36:32.069Z,6.55
2022-09-24T02:41:36.689Z,4.15
2022-09-24T02:46:42.826Z,5.75
2022-09-24T02:51:47.574Z,4.82
2022-09-24T02:56:51.185Z,6.28
2022-09-24T03:01:56.263Z,7.10
2022-09-24T03:07:00.285Z,5.07
2022-09-24T03:12:05.283Z,8.77
2022-09-24T03:17:10.175Z,4.88
2022-09-24T03:22:13.884Z,6.00
2022-09-24T03:27:17.410Z,5.03
2022-09-24T03:32:22.586Z,5.72
2022-09-24T03:37:26.357Z,8.88
2022-09-24T03:42:29.926Z,5.85
2022-09-24T03:47:37.458Z,5.93
2022-09-24T03:52:40.955Z,5.55
2022-09-24T03:57:44.793Z,5.55
2022-09-24T04:02:49.794Z,5.93
2022-09-24T04:07:53.617Z,6.30
2022-09-24T04:12:57.298Z,6.00
2022-09-24T04:18:02.411Z,5.00
2022-09-24T04:23:06.562Z,5.43
2022-09-24T04:28:12.032Z,5.85
2022-09-24T04:33:17.049Z,4.38
2022-09-24T04:38:21.411Z,6.97
2022-09-24T04:43:25.042Z,5.30
2022-09-24T04:48:30.792Z,5.55
2022-09-24T04:53:36.093Z,5.55
2022-09-24T04:58:39.829Z,6.93
2022-09-24T05:03:46.964Z,5.20
2022-09-24T05:08:50.514Z,6.37
2022-09-24T05:13:54.045Z,7.57
2022-09-24T05:18:59.621Z,6.13
2022-09-24T05:24:03.812Z,5.22
2022-09-24T05:29:07.615Z,5.70
2022-09-24T05:34:14.256Z,5.28
2022-09-24T05:39:17.807Z,5.32
2022-09-24T05:44:21.816Z,4.85
2022-09-24T05:49:26.895Z,6.43
2022-09-24T05:54:30.442Z,5.53
2022-09-24T05:59:34.186Z,6.25
2022-09-24T06:04:39.078Z,6.00
2022-09-24T06:09:42.543Z,8.38
2022-09-24T06:14:46.287Z,8.65
2022-09-24T06:19:51.077Z,5.43
2022-09-24T06:24:54.569Z,8.98
2022-09-24T06:29:58.093Z,9.75
2022-09-24T06:35:02.956Z,13.73
2022-09-24T06:40:09.871Z,8.98
2022-09-24T06:45:14.375Z,11.13
2022-09-24T06:50:19.442Z,8.23
2022-09-24T06:55:23.765Z,7.80
2022-09-24T07:00:27.298Z,11.35
2022-09-24T07:05:32.615Z,8.98
2022-09-24T07:10:36.145Z,8.32
2022-09-24T07:15:39.749Z,7.72
2022-09-24T07:20:44.777Z,14.25
2022-09-24T07:25:48.756Z,14.05
2022-09-24T07:30:59.870Z,12.80
2022-09-24T07:36:08.630Z,14.00
2022-09-24T07:41:12.224Z,12.25
2022-09-24T07:46:15.955Z,13.38
2022-09-24T07:51:20.991Z,14.10
2022-09-24T07:56:25.691Z,9.38
2022-09-24T08:01:29.294Z,12.40
2022-09-24T08:06:39.511Z,9.23
2022-09-24T08:11:43.712Z,11.05
2022-09-24T08:16:47.237Z,11.13
2022-09-24T08:21:52.219Z,9.95
2022-09-24T08:26:55.773Z,10.13
2022-09-24T08:31:59.285Z,9.38
2022-09-24T08:37:04.271Z,8.40
2022-09-24T08:42:15.154Z,13.38
2022-09-24T08:47:37.399Z,8.30
2022-09-24T08:53:02.751Z,7.10
2022-09-24T08:58:43.510Z,7.25
2022-09-24T09:03:56.163Z,7.25
2022-09-24T09:09:10.785Z,10.85
2022-09-24T09:14:20.253Z,6.75
2022-09-24T09:19:30.123Z,7.40
2022-09-24T09:24:45.898Z,7.10
2022-09-24T09:30:00.489Z,9.10
2022-09-24T09:35:16.470Z,7.45
2022-09-24T09:40:34.546Z,8.75
2022-09-24T09:45:47.978Z,6.93
2022-09-24T09:50:56.978Z,7.20
2022-09-24T09:56:06.532Z,8.00
2022-09-24T10:01:14.160Z,6.38
2022-09-24T10:06:27.506Z,8.48
2022-09-24T10:11:32.492Z,6.90
2022-09-24T10:16:40.708Z,6.15
2022-09-24T10:21:44.526Z,6.47
2022-09-24T10:26:51.035Z,7.45
2022-09-24T10:31:55.200Z,6.80
2022-09-24T10:37:08.697Z,6.85
2022-09-24T10:42:29.754Z,7.97
2022-09-24T10:47:43.636Z,11.15
2022-09-24T10:52:54.280Z,7.72
2022-09-24T10:58:08.664Z,9.15
2022-09-24T11:04:07.026Z,9.18
2022-09-24T11:09:25.606Z,9.20
2022-09-24T11:15:05.993Z,10.90
2022-09-24T11:20:32.302Z,9.88
2022-09-24T11:25:47.872Z,12.85
2022-09-24T11:31:07.699Z,11.98
2022-09-24T11:36:32.117Z,11.30
2022-09-24T11:41:50.893Z,13.05
2022-09-24T11:47:15.330Z,13.20
2022-09-24T11:52:32.627Z,11.27
2022-09-24T11:57:42.741Z,12.30
2022-09-24T12:02:52.041Z,12.75
2022-09-24T12:08:01.284Z,11.57
2022-09-24T12:13:18.282Z,11.30
2022-09-24T12:18:28.602Z,11.90
2022-09-24T12:23:40.251Z,13.20
2022-09-24T12:29:13.787Z,10.90
2022-09-24T12:34:28.957Z,11.90
2022-09-24T12:39:39.932Z,11.13
2022-09-24T12:44:50.022Z,12.88
2022-09-24T12:49:59.619Z,13.63
2022-09-24T12:55:06.136Z,12.82
2022-09-24T13:00:42.842Z,11.07
2022-09-24T13:05:50.382Z,12.60
2022-09-24T13:16:07.576Z,12.85
2022-09-24T13:21:24.246Z,12.10
2022-09-24T13:26:37.440Z,10.27
2022-09-24T13:31:49.055Z,11.30
2022-09-24T13:37:00.824Z,10.68
2022-09-24T13:42:22.045Z,11.88
2022-09-24T13:47:36.297Z,11.05
2022-09-24T13:52:47.131Z,12.40
2022-09-24T13:57:50.922Z,10.88
2022-09-24T14:03:02.178Z,10.82
2022-09-24T14:08:12.973Z,9.65
2022-09-24T14:13:21.900Z,8.82
2022-09-24T14:18:27.550Z,9.65
2022-09-24T14:23:40.054Z,10.52
2022-09-24T14:28:43.938Z,10.02
2022-09-24T14:33:47.739Z,10.05
2022-09-24T14:39:01.759Z,10.93
2022-09-24T14:44:10.524Z,12.40
2022-09-24T14:49:23.522Z,11.32
2022-09-24T14:54:34.369Z,11.60
2022-09-24T14:59:41.630Z,12.18
2022-09-24T15:04:49.203Z,11.93
2022-09-24T15:09:58.089Z,13.93
2022-09-24T15:15:05.512Z,14.38
2022-09-24T15:20:13.632Z,12.55
2022-09-24T15:25:18.657Z,39.38
2022-09-24T15:30:23.769Z,31.70
2022-09-24T15:35:27.216Z,32.60
2022-09-24T15:40:36.677Z,31.25
2022-09-24T15:45:40.152Z,31.98
2022-09-24T15:50:47.694Z,24.95
2022-09-24T15:55:56.496Z,24.10
2022-09-24T16:01:00.007Z,21.23
2022-09-24T16:06:03.656Z,27.42
2022-09-24T16:11:09.498Z,21.85
2022-09-24T16:16:13.161Z,20.95
2022-09-24T16:21:17.380Z,32.35
2022-09-24T16:26:22.537Z,16.42
2022-09-24T16:31:26.243Z,19.13
2022-09-24T16:36:30.075Z,18.02
2022-09-24T16:41:36.960Z,21.13
2022-09-24T16:46:40.863Z,17.47
2022-09-24T16:51:45.296Z,16.00
2022-09-24T16:56:52.374Z,16.02
2022-09-24T17:01:56.211Z,13.83
2022-09-24T17:07:00.403Z,12.07
2022-09-24T17:12:06.145Z,14.13
2022-09-24T17:17:09.993Z,13.90
2022-09-24T17:22:13.700Z,13.98
2022-09-24T17:27:18.941Z,13.05
2022-09-24T17:32:22.842Z,13.45
2022-09-24T17:37:27.326Z,13.20
2022-09-24T17:42:33.285Z,10.45
2022-09-24T17:47:50.754Z,12.70
2022-09-24T17:52:54.532Z,11.63
2022-09-24T17:57:59.618Z,9.55
2022-09-24T18:03:03.551Z,10.38
2022-09-24T18:08:08.368Z,10.98
2022-09-24T18:13:14.267Z,9.70
2022-09-24T18:18:18.027Z,11.00
2022-09-24T18:23:22.848Z,8.63
2022-09-24T18:28:28.272Z,8.48
2022-09-24T18:33:32.324Z,8.38
2022-09-24T18:38:36.597Z,9.27
2022-09-24T18:43:43.198Z,9.30
2022-09-24T18:48:51.759Z,10.63
2022-09-24T18:53:58.496Z,8.85
2022-09-24T18:59:09.977Z,9.43
2022-09-24T19:04:15.834Z,8.48
2022-09-24T19:09:21.294Z,9.90
2022-09-24T19:14:27.241Z,8.50
2022-09-24T19:19:30.872Z,9.25
2022-09-24T19:24:34.687Z,7.25
2022-09-24T19:29:43.139Z,8.50
2022-09-24T19:34:47.467Z,8.95
2022-09-24T19:39:51.440Z,8.50
2022-09-24T19:44:57.056Z,7.72
2022-09-24T19:50:01.067Z,8.20
2022-09-24T19:55:05.460Z,7.72
2022-09-24T20:00:12.460Z,8.88
2022-09-24T20:05:16.212Z,8.10
2022-09-24T20:10:20.627Z,8.65
2022-09-24T20:15:25.837Z,7.25
2022-09-24T20:20:29.571Z,6.93
2022-09-24T20:25:50.615Z,8.75
2022-09-24T20:30:55.878Z,7.88
2022-09-24T20:36:03.433Z,7.97
2022-09-24T20:46:19.000Z,8.18
2022-09-24T20:51:23.242Z,6.57
2022-09-24T20:56:30.659Z,6.75
2022-09-24T21:06:39.323Z,6.25
2022-09-24T21:11:43.845Z,7.60
2022-09-24T21:16:49.460Z,11.85
2022-09-24T21:21:53.869Z,11.67
2022-09-24T21:27:00.522Z,12.63
2022-09-24T21:32:05.738Z,8.07
2022-09-24T21:37:09.410Z,10.85
2022-09-24T21:42:14.199Z,8.00
2022-09-24T21:47:19.331Z,11.20
2022-09-24T21:52:23.599Z,9.73
2022-09-24T21:57:27.133Z,9.48
2022-09-24T22:02:32.496Z,8.05
2022-09-24T22:07:36.413Z,10.15
2022-09-24T22:12:40.142Z,7.13
2022-09-24T22:17:45.109Z,6.72
2022-09-24T22:22:49.029Z,8.35
2022-09-24T22:27:52.578Z,8.32
2022-09-24T22:32:57.416Z,7.47
2022-09-24T22:38:01.460Z,8.82
2022-09-24T22:43:05.077Z,9.55
2022-09-24T22:48:10.079Z,7.32
2022-09-24T22:53:13.575Z,9.15
2022-09-24T22:58:17.101Z,8.73
2022-09-24T23:03:22.114Z,8.15
2022-09-24T23:08:26.014Z,9.43
2022-09-24T23:13:29.531Z,9.48
2022-09-24T23:18:34.552Z,10.38
2022-09-24T23:23:38.818Z,10.57
2022-09-24T23:28:42.921Z,11.48
2022-09-24T23:33:47.942Z,7.55
2022-09-24T23:38:52.715Z,7.82
2022-09-24T23:43:56.398Z,10.88
2022-09-24T23:49:01.232Z,9.23
2022-09-24T23:54:05.008Z,10.50
2022-09-24T23:59:09.160Z,10.45
